createdAt,value
2019-05-23T00:01:10.474Z,9.90
2019-05-23T00:03:39.294Z,9.52
2019-05-23T00:06:11.746Z,11.10
2019-05-23T00:08:39.925Z,10.73
2019-05-23T00:11:14.282Z,11.40
2019-05-23T00:13:49.842Z,11.30
2019-05-23T00:16:17.838Z,10.70
2019-05-23T00:18:46.658Z,10.65
2019-05-23T00:21:14.689Z,11.73
2019-05-23T00:23:43.597Z,12.60
2019-05-23T00:26:12.363Z,9.47
2019-05-23T00:28:41.169Z,10.02
2019-05-23T00:31:19.896Z,8.90
2019-05-23T00:33:47.943Z,8.77
2019-05-23T00:36:16.765Z,9.75
2019-05-23T00:38:44.801Z,9.88
2019-05-23T00:41:12.886Z,9.18
2019-05-23T00:43:40.923Z,10.20
2019-05-23T00:46:08.976Z,9.85
2019-05-23T00:48:36.994Z,8.55
2019-05-23T00:51:05.547Z,10.25
2019-05-23T00:53:33.061Z,9.25
2019-05-23T00:56:01.062Z,8.87
2019-05-23T00:58:30.596Z,8.43
2019-05-23T01:00:59.387Z,9.63
2019-05-23T01:03:28.355Z,9.65
2019-05-23T01:05:56.308Z,8.70
2019-05-23T01:08:24.340Z,10.55
2019-05-23T01:10:52.357Z,10.20
2019-05-23T01:13:20.418Z,13.73
2019-05-23T01:15:48.441Z,9.55
2019-05-23T01:18:17.253Z,10.03
2019-05-23T01:20:48.914Z,10.27
2019-05-23T01:23:16.937Z,8.23
2019-05-23T01:25:45.829Z,8.38
2019-05-23T01:28:13.825Z,8.83
2019-05-23T01:30:44.329Z,9.10
2019-05-23T01:33:12.352Z,9.32
2019-05-23T01:35:40.383Z,8.43
2019-05-23T01:38:08.448Z,9.00
2019-05-23T01:40:36.482Z,10.43
2019-05-23T01:43:04.519Z,13.62
2019-05-23T01:45:32.558Z,14.85
2019-05-23T01:48:00.589Z,10.88
2019-05-23T01:50:28.638Z,14.65
2019-05-23T01:52:56.717Z,14.80
2019-05-23T01:55:24.782Z,13.10
2019-05-23T01:57:52.811Z,14.38
2019-05-23T02:00:20.866Z,13.65
2019-05-23T02:02:48.901Z,13.35
2019-05-23T02:05:16.936Z,14.32
2019-05-23T02:07:44.969Z,12.75
2019-05-23T02:10:13.955Z,12.93
2019-05-23T02:12:41.826Z,12.00
2019-05-23T02:15:09.911Z,10.87
2019-05-23T02:17:38.790Z,11.57
2019-05-23T02:20:07.641Z,12.80
2019-05-23T02:22:35.666Z,15.00
2019-05-23T02:25:03.713Z,12.35
2019-05-23T02:27:31.718Z,15.07
2019-05-23T02:29:59.755Z,11.85
2019-05-23T02:32:27.818Z,11.48
2019-05-23T02:34:55.826Z,28.10
2019-05-23T02:37:39.655Z,9.38
2019-05-23T02:40:08.494Z,9.75
2019-05-23T02:42:40.830Z,9.63
2019-05-23T02:45:08.870Z,10.45
2019-05-23T02:47:36.993Z,9.50
2019-05-23T02:50:05.761Z,8.80
2019-05-23T02:52:33.779Z,11.48
2019-05-23T02:55:01.820Z,8.73
2019-05-23T02:57:29.814Z,8.80
2019-05-23T02:59:57.862Z,9.20
2019-05-23T03:02:56.023Z,8.75
2019-05-23T03:05:24.053Z,8.40
2019-05-23T03:07:52.051Z,8.33
2019-05-23T03:10:20.121Z,8.32
2019-05-23T03:12:48.922Z,8.57
2019-05-23T03:15:17.055Z,8.20
2019-05-23T03:17:47.710Z,9.38
2019-05-23T03:20:15.796Z,8.43
2019-05-23T03:22:48.536Z,7.93
2019-05-23T03:28:31.126Z,7.60
2019-05-23T03:31:25.208Z,9.15
2019-05-23T03:33:27.159Z,9.30
2019-05-23T03:35:57.118Z,10.32
2019-05-23T03:38:25.154Z,9.02
2019-05-23T03:40:53.163Z,8.87
2019-05-23T03:43:21.245Z,10.00
2019-05-23T03:45:59.172Z,11.25
2019-05-23T03:48:27.174Z,12.33
2019-05-23T03:50:55.211Z,16.45
2019-05-23T03:53:23.648Z,15.25
2019-05-23T03:55:51.718Z,16.60
2019-05-23T03:58:20.507Z,31.98
2019-05-23T04:00:48.545Z,69.03
2019-05-23T04:03:16.688Z,36.55
2019-05-23T04:05:44.731Z,20.17
2019-05-23T04:08:12.789Z,26.02
2019-05-23T04:10:40.818Z,33.25
2019-05-23T04:13:08.865Z,38.38
2019-05-23T04:15:36.869Z,29.70
2019-05-23T04:18:05.710Z,24.87
2019-05-23T04:20:33.757Z,34.60
2019-05-23T04:23:01.800Z,35.63
2019-05-23T04:25:29.894Z,21.92
2019-05-23T04:27:57.959Z,14.90
2019-05-23T04:33:24.402Z,11.85
2019-05-23T04:35:53.194Z,13.93
2019-05-23T04:38:21.239Z,12.07
2019-05-23T04:40:49.330Z,11.48
2019-05-23T04:43:18.131Z,11.93
2019-05-23T04:45:46.161Z,9.90
2019-05-23T04:48:14.199Z,10.00
2019-05-23T04:50:42.229Z,10.25
2019-05-23T04:53:10.531Z,9.55
2019-05-23T04:55:38.566Z,10.90
2019-05-23T04:58:07.374Z,10.13
2019-05-23T05:00:35.405Z,9.85
2019-05-23T05:03:04.231Z,11.00
2019-05-23T05:05:32.261Z,10.77
2019-05-23T05:08:00.292Z,11.03
2019-05-23T05:10:28.327Z,11.77
2019-05-23T05:12:57.124Z,12.48
2019-05-23T05:15:25.156Z,11.45
2019-05-23T05:17:53.279Z,10.75
2019-05-23T05:20:22.109Z,9.90
2019-05-23T05:22:50.214Z,12.70
2019-05-23T05:25:18.220Z,12.30
2019-05-23T05:27:46.270Z,15.18
2019-05-23T05:30:14.344Z,13.48
2019-05-23T05:32:45.430Z,14.55
2019-05-23T05:35:10.504Z,12.20
2019-05-23T05:37:38.555Z,11.27
2019-05-23T05:40:07.349Z,13.32
2019-05-23T05:42:35.401Z,13.48
2019-05-23T05:45:03.419Z,15.47
2019-05-23T05:47:31.470Z,14.73
2019-05-23T05:49:59.486Z,13.30
2019-05-23T05:52:28.313Z,16.90
2019-05-23T05:54:56.376Z,15.60
2019-05-23T05:57:24.450Z,15.00
2019-05-23T05:59:52.529Z,13.80
2019-05-23T06:02:20.564Z,14.00
2019-05-23T06:04:49.376Z,16.92
2019-05-23T06:07:23.112Z,17.50
2019-05-23T06:09:51.143Z,17.50
2019-05-23T06:12:19.186Z,17.67
2019-05-23T06:14:47.225Z,16.15
2019-05-23T06:17:15.269Z,16.17
2019-05-23T06:19:43.313Z,16.23
2019-05-23T06:22:12.115Z,18.65
2019-05-23T06:24:48.110Z,19.75
2019-05-23T06:27:09.206Z,18.20
2019-05-23T06:29:37.251Z,18.08
2019-05-23T06:32:05.281Z,18.25
2019-05-23T06:34:33.385Z,19.40
2019-05-23T06:37:01.435Z,16.48
2019-05-23T06:39:30.233Z,18.12
2019-05-23T06:41:59.852Z,17.67
2019-05-23T06:44:27.892Z,18.92
2019-05-23T06:46:55.936Z,17.87
2019-05-23T06:49:24.057Z,19.23
2019-05-23T06:51:52.177Z,21.75
2019-05-23T06:54:20.310Z,18.62
2019-05-23T06:56:49.098Z,17.10
2019-05-23T06:59:17.142Z,18.12
2019-05-23T07:01:45.944Z,17.62
2019-05-23T07:04:14.050Z,17.27
2019-05-23T07:06:42.112Z,17.27
2019-05-23T07:09:10.156Z,14.50
2019-05-23T07:11:38.986Z,17.35
2019-05-23T07:14:07.012Z,18.02
2019-05-23T07:16:35.070Z,13.13
2019-05-23T07:19:03.889Z,14.52
2019-05-23T07:21:31.929Z,13.62
2019-05-23T07:23:59.958Z,14.30
2019-05-23T07:26:27.996Z,14.60
2019-05-23T07:28:56.042Z,12.90
2019-05-23T07:31:24.225Z,9.75
2019-05-23T07:34:01.988Z,11.43
2019-05-23T07:36:21.068Z,12.18
2019-05-23T07:38:49.876Z,12.60
2019-05-23T07:41:17.929Z,11.85
2019-05-23T07:43:46.750Z,12.60
2019-05-23T07:46:14.781Z,12.40
2019-05-23T07:48:42.868Z,12.70
2019-05-23T07:51:10.901Z,12.60
2019-05-23T07:53:54.858Z,13.35
2019-05-23T07:56:22.905Z,13.75
2019-05-23T07:58:51.030Z,13.05
2019-05-23T08:01:20.755Z,13.32
2019-05-23T08:03:49.485Z,11.98
2019-05-23T08:06:17.597Z,11.10
2019-05-23T08:08:45.665Z,13.35
2019-05-23T08:11:13.777Z,10.65
2019-05-23T08:13:41.772Z,10.65
2019-05-23T08:16:09.834Z,10.18
2019-05-23T08:18:37.951Z,9.32
2019-05-23T08:21:05.985Z,10.05
2019-05-23T08:23:34.018Z,10.98
2019-05-23T08:26:02.120Z,13.05
2019-05-23T08:28:30.097Z,9.02
2019-05-23T08:30:58.130Z,8.43
2019-05-23T08:33:26.194Z,8.30
2019-05-23T08:35:54.936Z,8.45
2019-05-23T08:38:23.736Z,6.22
2019-05-23T08:40:52.563Z,8.98
2019-05-23T08:43:20.610Z,8.20
2019-05-23T08:45:48.636Z,7.22
2019-05-23T08:48:16.743Z,6.80
2019-05-23T08:50:44.790Z,7.78
2019-05-23T08:53:12.839Z,6.75
2019-05-23T08:55:40.872Z,7.40
2019-05-23T08:58:09.753Z,6.30
2019-05-23T09:00:37.797Z,6.25
2019-05-23T09:03:06.586Z,5.70
2019-05-23T09:05:35.379Z,5.65
2019-05-23T09:08:04.171Z,5.85
2019-05-23T09:10:32.242Z,5.37
2019-05-23T09:13:01.034Z,5.82
2019-05-23T09:15:29.090Z,7.22
2019-05-23T09:17:57.891Z,6.80
2019-05-23T09:20:26.674Z,6.70
2019-05-23T09:22:55.560Z,6.87
2019-05-23T09:25:24.452Z,5.90
2019-05-23T09:27:52.448Z,6.10
2019-05-23T09:30:20.502Z,6.32
2019-05-23T09:32:48.553Z,6.18
2019-05-23T09:35:21.282Z,5.53
2019-05-23T09:37:45.610Z,5.80
2019-05-23T09:40:14.210Z,6.67
2019-05-23T09:42:42.268Z,6.63
2019-05-23T09:45:11.089Z,5.32
2019-05-23T09:47:39.116Z,5.68
2019-05-23T09:50:07.932Z,5.40
2019-05-23T09:52:35.943Z,5.97
2019-05-23T09:55:03.973Z,5.35
2019-05-23T09:57:32.749Z,7.27
2019-05-23T10:00:00.820Z,6.70
2019-05-23T10:02:28.898Z,5.90
2019-05-23T10:04:56.932Z,6.70
2019-05-23T10:07:25.000Z,5.75
2019-05-23T10:09:53.045Z,5.20
2019-05-23T10:12:22.563Z,5.40
2019-05-23T10:14:49.132Z,6.20
2019-05-23T10:17:17.177Z,7.60
2019-05-23T10:19:45.269Z,6.83
2019-05-23T10:22:14.092Z,5.50
2019-05-23T10:24:42.149Z,5.43
2019-05-23T10:27:10.940Z,5.72
2019-05-23T10:29:39.048Z,8.95
2019-05-23T10:32:07.058Z,6.87
2019-05-23T10:34:35.092Z,6.15
2019-05-23T10:37:03.130Z,8.95
2019-05-23T10:39:32.389Z,6.80
2019-05-23T10:42:01.192Z,5.68
2019-05-23T10:44:29.972Z,5.87
2019-05-23T10:46:58.043Z,6.60
2019-05-23T10:49:26.839Z,5.80
2019-05-23T10:51:54.900Z,5.87
2019-05-23T10:54:23.868Z,5.40
2019-05-23T10:56:51.946Z,5.87
2019-05-23T10:59:19.969Z,5.28
2019-05-23T11:01:48.011Z,5.80
2019-05-23T11:04:16.794Z,5.78
2019-05-23T11:06:45.691Z,7.68
2019-05-23T11:09:13.690Z,7.93
2019-05-23T11:11:41.748Z,5.12
2019-05-23T11:14:10.516Z,5.20
2019-05-23T11:16:38.600Z,4.70
2019-05-23T11:19:06.624Z,6.40
2019-05-23T11:21:34.737Z,6.05
2019-05-23T11:24:02.814Z,7.53
2019-05-23T11:26:30.845Z,6.30
2019-05-23T11:28:58.865Z,7.30
2019-05-23T11:31:26.898Z,5.20
2019-05-23T11:33:55.681Z,5.70
2019-05-23T11:36:34.756Z,5.20
2019-05-23T11:38:52.656Z,6.00
2019-05-23T11:41:20.744Z,5.28
2019-05-23T11:43:48.717Z,4.43
2019-05-23T11:46:16.740Z,5.75
2019-05-23T11:48:45.528Z,5.82
2019-05-23T11:51:14.324Z,4.85
2019-05-23T11:53:45.541Z,4.47
2019-05-23T11:56:12.028Z,4.87
2019-05-23T11:58:40.087Z,4.87
2019-05-23T12:01:09.522Z,4.53
2019-05-23T12:03:37.867Z,6.33
2019-05-23T12:06:06.505Z,4.40
2019-05-23T12:08:34.546Z,5.20
2019-05-23T12:11:02.572Z,4.57
2019-05-23T12:13:31.476Z,3.60
2019-05-23T12:15:59.504Z,3.50
2019-05-23T12:18:27.612Z,4.32
2019-05-23T12:20:59.427Z,3.53
2019-05-23T12:23:24.581Z,4.55
2019-05-23T12:25:52.610Z,3.20
2019-05-23T12:28:20.637Z,5.50
2019-05-23T12:30:48.656Z,3.50
2019-05-23T12:33:16.704Z,4.12
2019-05-23T12:35:44.792Z,3.20
2019-05-23T12:38:12.889Z,4.22
2019-05-23T12:40:41.692Z,3.30
2019-05-23T12:43:09.749Z,3.30
2019-05-23T12:45:38.645Z,3.35
2019-05-23T12:48:08.616Z,3.87
2019-05-23T12:50:36.642Z,3.75
2019-05-23T12:53:04.689Z,3.20
2019-05-23T12:55:32.765Z,4.00
2019-05-23T12:58:01.659Z,3.22
2019-05-23T13:00:32.780Z,3.40
2019-05-23T13:03:00.823Z,3.22
2019-05-23T13:05:28.857Z,3.10
2019-05-23T13:07:56.814Z,4.70
2019-05-23T13:10:25.544Z,5.28
2019-05-23T13:12:53.670Z,4.05
2019-05-23T13:15:22.457Z,5.50
2019-05-23T13:17:50.524Z,3.10
2019-05-23T13:20:19.309Z,3.20
2019-05-23T13:22:47.342Z,4.45
2019-05-23T13:25:15.416Z,3.70
2019-05-23T13:27:43.404Z,4.00
2019-05-23T13:30:12.197Z,3.55
2019-05-23T13:32:41.015Z,3.58
2019-05-23T13:35:09.054Z,3.75
2019-05-23T13:37:52.388Z,3.90
2019-05-23T13:40:05.087Z,3.50
2019-05-23T13:42:33.139Z,4.07
2019-05-23T13:45:01.265Z,3.50
2019-05-23T13:47:29.292Z,7.62
2019-05-23T13:49:57.381Z,4.03
2019-05-23T13:52:25.492Z,4.07
2019-05-23T13:54:53.523Z,3.40
2019-05-23T13:57:21.578Z,2.33
2019-05-23T13:59:49.602Z,3.33
2019-05-23T14:02:17.606Z,3.73
2019-05-23T14:04:45.703Z,3.33
2019-05-23T14:07:14.502Z,2.33
2019-05-23T14:09:42.533Z,2.87
2019-05-23T14:12:25.995Z,4.55
2019-05-23T14:14:38.733Z,3.85
2019-05-23T14:17:10.249Z,2.78
2019-05-23T14:19:39.144Z,2.67
2019-05-23T14:22:07.936Z,3.00
2019-05-23T14:24:37.931Z,3.67
2019-05-23T14:27:08.806Z,4.32
2019-05-23T14:29:36.847Z,2.55
2019-05-23T14:32:19.734Z,3.92
2019-05-23T14:34:47.932Z,3.42
2019-05-23T14:37:32.390Z,4.57
2019-05-23T14:40:01.197Z,2.40
2019-05-23T14:42:35.085Z,3.40
2019-05-23T14:45:03.885Z,2.33
2019-05-23T14:47:31.918Z,2.20
2019-05-23T14:49:59.947Z,2.33
2019-05-23T14:52:35.285Z,4.27
2019-05-23T14:55:03.319Z,3.05
2019-05-23T14:57:32.129Z,2.62
2019-05-23T15:00:00.917Z,3.28
2019-05-23T15:02:29.676Z,2.47
2019-05-23T15:04:57.681Z,4.30
2019-05-23T15:07:25.725Z,4.40
2019-05-23T15:09:53.787Z,3.45
2019-05-23T15:12:22.584Z,2.62
2019-05-23T15:14:51.381Z,3.40
2019-05-23T15:17:19.425Z,2.33
2019-05-23T15:19:47.554Z,2.58
2019-05-23T15:22:15.591Z,2.25
2019-05-23T15:24:44.385Z,2.05
2019-05-23T15:27:12.411Z,2.30
2019-05-23T15:29:41.970Z,3.17
2019-05-23T15:32:10.023Z,2.00
2019-05-23T15:34:38.821Z,2.80
2019-05-23T15:37:06.865Z,3.00
2019-05-23T15:39:35.669Z,3.10
2019-05-23T15:42:03.742Z,2.03
2019-05-23T15:44:32.639Z,2.30
2019-05-23T15:47:01.410Z,4.40
2019-05-23T15:49:30.214Z,2.37
2019-05-23T15:52:13.143Z,2.80
2019-05-23T15:54:43.445Z,2.87
2019-05-23T15:57:14.166Z,2.58
2019-05-23T15:59:42.959Z,2.35
2019-05-23T16:02:12.333Z,2.10
2019-05-23T16:04:40.355Z,2.67
2019-05-23T16:07:08.379Z,2.70
2019-05-23T16:09:36.397Z,3.60
2019-05-23T16:12:04.443Z,5.22
2019-05-23T16:14:33.237Z,2.80
2019-05-23T16:17:01.305Z,2.03
2019-05-23T16:19:29.384Z,2.80
2019-05-23T16:21:57.420Z,2.00
2019-05-23T16:24:25.445Z,2.78
2019-05-23T16:26:53.463Z,3.37
2019-05-23T16:29:22.248Z,4.40
2019-05-23T16:31:51.261Z,3.20
2019-05-23T16:34:20.094Z,2.05
2019-05-23T16:36:48.131Z,3.17
2019-05-23T16:39:16.897Z,2.20
2019-05-23T16:41:45.791Z,3.28
2019-05-23T16:44:14.987Z,2.15
2019-05-23T16:46:43.798Z,2.95
2019-05-23T16:49:11.822Z,4.00
2019-05-23T16:51:39.924Z,2.87
2019-05-23T16:54:07.949Z,2.92
2019-05-23T16:56:53.733Z,2.10
2019-05-23T16:59:25.364Z,2.47
2019-05-23T17:02:00.410Z,5.35
2019-05-23T17:04:27.714Z,8.63
2019-05-23T17:07:14.578Z,5.40
2019-05-23T17:10:06.715Z,5.12
2019-05-23T17:15:12.793Z,6.72
2019-05-23T17:18:02.030Z,7.30
2019-05-23T17:20:25.363Z,4.85
2019-05-23T17:22:58.177Z,3.85
2019-05-23T17:25:28.148Z,3.15
2019-05-23T17:27:56.936Z,6.78
2019-05-23T17:30:28.342Z,2.70
2019-05-23T17:32:56.491Z,3.12
2019-05-23T17:35:24.545Z,4.63
2019-05-23T17:37:52.609Z,4.05
2019-05-23T17:40:24.977Z,4.43
2019-05-23T17:42:48.757Z,2.12
2019-05-23T17:45:16.771Z,2.00
2019-05-23T17:47:44.809Z,3.45
2019-05-23T17:50:12.848Z,2.65
2019-05-23T17:52:41.654Z,2.65
2019-05-23T17:55:09.689Z,3.75
2019-05-23T17:57:37.685Z,5.07
2019-05-23T18:00:07.112Z,2.97
2019-05-23T18:02:35.141Z,3.65
2019-05-23T18:05:04.659Z,3.67
2019-05-23T18:07:33.472Z,8.88
2019-05-23T18:10:01.591Z,15.75
2019-05-23T18:12:29.582Z,6.30
2019-05-23T18:14:58.627Z,3.70
2019-05-23T18:17:26.627Z,6.10
2019-05-23T18:19:54.715Z,6.75
2019-05-23T18:22:23.617Z,4.90
2019-05-23T18:24:51.784Z,3.00
2019-05-23T18:27:19.716Z,2.60
2019-05-23T18:29:47.809Z,2.40
2019-05-23T18:32:16.608Z,2.67
2019-05-23T18:34:44.685Z,5.55
2019-05-23T18:37:13.510Z,4.30
2019-05-23T18:39:41.497Z,2.35
2019-05-23T18:42:09.519Z,5.37
2019-05-23T18:44:37.553Z,3.30
2019-05-23T18:47:08.615Z,3.95
2019-05-23T18:49:36.622Z,1.70
2019-05-23T18:52:04.669Z,2.60
2019-05-23T18:54:32.703Z,2.35
2019-05-23T18:57:00.812Z,3.53
2019-05-23T18:59:28.869Z,4.87
2019-05-23T19:01:56.849Z,2.93
2019-05-23T19:04:24.893Z,1.40
2019-05-23T19:06:52.954Z,4.50
2019-05-23T19:09:20.988Z,3.58
2019-05-23T19:11:49.020Z,3.62
2019-05-23T19:14:17.795Z,3.07
2019-05-23T19:16:46.573Z,2.70
2019-05-23T19:19:15.379Z,2.30
2019-05-23T19:21:43.397Z,1.65
2019-05-23T19:24:11.761Z,3.53
2019-05-23T19:26:39.753Z,2.40
2019-05-23T19:29:07.778Z,3.30
2019-05-23T19:31:35.790Z,2.33
2019-05-23T19:34:03.869Z,5.50
2019-05-23T19:36:32.022Z,2.33
2019-05-23T19:39:00.195Z,4.50
2019-05-23T19:41:36.842Z,2.45
2019-05-23T19:43:56.293Z,3.03
2019-05-23T19:46:25.182Z,3.37
2019-05-23T19:48:53.232Z,2.17
2019-05-23T19:51:21.217Z,2.20
2019-05-23T19:53:49.265Z,2.70
2019-05-23T19:56:17.276Z,4.60
2019-05-23T19:58:45.317Z,3.30
2019-05-23T20:01:14.104Z,2.70
2019-05-23T20:03:42.997Z,2.50
2019-05-23T20:06:11.906Z,3.70
2019-05-23T20:08:39.926Z,3.05
2019-05-23T20:11:08.029Z,4.43
2019-05-23T20:13:36.832Z,4.35
2019-05-23T20:16:04.891Z,5.75
2019-05-23T20:18:34.904Z,5.55
2019-05-23T20:21:03.726Z,6.10
2019-05-23T20:23:31.780Z,5.47
2019-05-23T20:25:59.828Z,4.85
2019-05-23T20:28:28.621Z,5.82
2019-05-23T20:30:57.171Z,5.60
2019-05-23T20:33:25.180Z,6.00
2019-05-23T20:35:53.262Z,6.43
2019-05-23T20:38:21.224Z,4.68
2019-05-23T20:40:49.289Z,5.30
2019-05-23T20:43:17.329Z,5.05
2019-05-23T20:45:45.360Z,3.75
2019-05-23T20:48:13.414Z,6.95
2019-05-23T20:50:41.470Z,5.35
2019-05-23T20:53:09.649Z,4.82
2019-05-23T20:55:37.592Z,5.53
2019-05-23T20:58:06.388Z,6.53
2019-05-23T21:00:39.832Z,6.05
2019-05-23T21:03:07.948Z,6.22
2019-05-23T21:05:36.757Z,5.70
2019-05-23T21:08:04.815Z,6.47
2019-05-23T21:10:51.432Z,7.07
2019-05-23T21:13:20.319Z,5.03
2019-05-23T21:15:48.378Z,5.37
2019-05-23T21:18:16.444Z,6.63
2019-05-23T21:20:45.337Z,5.97
2019-05-23T21:23:14.116Z,8.88
2019-05-23T21:25:43.382Z,7.10
2019-05-23T21:28:11.405Z,5.53
2019-05-23T21:30:39.469Z,5.28
2019-05-23T21:33:08.977Z,7.05
2019-05-23T21:35:37.005Z,6.65
2019-05-23T21:38:06.543Z,7.37
2019-05-23T21:40:38.201Z,7.53
2019-05-23T21:43:07.096Z,6.53
2019-05-23T21:45:35.138Z,7.90
2019-05-23T21:48:03.515Z,7.53
2019-05-23T21:50:31.330Z,5.47
2019-05-23T21:52:59.344Z,10.18
2019-05-23T21:55:41.230Z,6.53
2019-05-23T21:58:09.325Z,4.35
2019-05-23T22:01:18.789Z,6.12
2019-05-23T22:04:05.605Z,5.93
2019-05-23T22:06:38.606Z,5.75
2019-05-23T22:09:06.605Z,4.60
2019-05-23T22:11:34.681Z,6.05
2019-05-23T22:14:02.705Z,6.07
2019-05-23T22:16:30.736Z,5.62
2019-05-23T22:18:59.560Z,6.07
2019-05-23T22:21:27.592Z,5.18
2019-05-23T22:23:55.632Z,5.60
2019-05-23T22:26:23.640Z,5.97
2019-05-23T22:28:52.535Z,5.60
2019-05-23T22:31:20.547Z,4.53
2019-05-23T22:33:52.522Z,6.95
2019-05-23T22:36:20.536Z,5.43
2019-05-23T22:38:48.614Z,4.22
2019-05-23T22:41:16.683Z,3.93
2019-05-23T22:43:45.569Z,5.82
2019-05-23T22:46:15.093Z,5.00
2019-05-23T22:48:43.849Z,5.73
2019-05-23T22:51:12.640Z,6.43
2019-05-23T22:53:41.433Z,4.47
2019-05-23T22:56:10.389Z,5.55
2019-05-23T22:58:38.412Z,5.68
2019-05-23T23:01:06.438Z,6.07
2019-05-23T23:03:34.460Z,4.43
2019-05-23T23:06:02.531Z,4.47
2019-05-23T23:08:31.305Z,6.78
2019-05-23T23:11:00.060Z,5.72
2019-05-23T23:13:38.072Z,5.30
2019-05-23T23:15:56.099Z,4.62
2019-05-23T23:18:24.192Z,4.53
2019-05-23T23:20:52.234Z,3.58
2019-05-23T23:23:20.261Z,4.30
2019-05-23T23:25:48.284Z,4.57
2019-05-23T23:28:17.081Z,6.55
2019-05-23T23:30:45.895Z,4.05
2019-05-23T23:33:13.935Z,4.07
2019-05-23T23:35:42.738Z,5.78
2019-05-23T23:38:10.764Z,4.72
2019-05-23T23:40:38.796Z,4.25
2019-05-23T23:43:06.844Z,5.18
2019-05-23T23:45:41.306Z,4.40
2019-05-23T23:48:14.944Z,4.00
2019-05-23T23:50:48.721Z,4.68
2019-05-23T23:53:22.346Z,4.00
2019-05-23T23:55:56.092Z,6.80
2019-05-23T23:58:23.615Z,5.20
